| time (UTC) | temp F | wind direction | speed MPH | gust MPH | rain 1hr in | rain 24hr in | rain mn in | humidity % | barometer mb |
| 20260508224531 | 39 | 330 | 0.0 | 1.0 | 0.00 | 0.00 | 0.00 | 49 | 1024.8 |
| 20260508223033 | 41 | 330 | 0.0 | 1.0 | 0.00 | 0.00 | 0.00 | 45 | 1024.8 |
| 20260508221527 | 42 | 328 | 0.0 | 2.0 | 0.00 | 0.00 | 0.00 | 42 | 1024.6 |
| 20260508220101 | 42 | 328 | 0.0 | 1.0 | 0.00 | 0.00 | 0.00 | 42 | 1024.6 |
| 20260508214521 | 44 | 355 | 0.0 | 4.0 | 0.00 | 0.00 | 0.00 | 38 | 1024.6 |
| 20260508213021 | 44 | 346 | 1.0 | 4.0 | 0.00 | 0.00 | 0.00 | 39 | 1024.6 |
| 20260508211524 | 44 | 339 | 0.0 | 5.0 | 0.00 | 0.00 | 0.00 | 39 | 1024.4 |
| 20260508210020 | 45 | 39 | 1.0 | 6.0 | 0.00 | 0.00 | 0.00 | 40 | 1024.4 |
| 20260508204521 | 45 | 346 | 0.0 | 6.0 | 0.00 | 0.00 | 0.00 | 41 | 1024.3 |
| 20260508203017 | 46 | 336 | 0.0 | 5.0 | 0.00 | 0.00 | 0.00 | 39 | 1024.2 |
| 20260508201521 | 46 | 315 | 1.0 | 5.0 | 0.00 | 0.00 | 0.00 | 40 | 1024.2 |
| 20260508200017 | 46 | 341 | 0.0 | 3.0 | 0.00 | 0.00 | 0.00 | 40 | 1024.1 |
| 20260508194514 | 47 | 342 | 0.0 | 1.0 | 0.00 | 0.00 | 0.00 | 38 | 1024.0 |
| 20260508193012 | 48 | 302 | 0.0 | 3.0 | 0.00 | 0.00 | 0.00 | 38 | 1024.0 |
| 20260508191517 | 49 | 295 | 1.0 | 5.0 | 0.00 | 0.00 | 0.00 | 36 | 1023.9 |
| 20260508190012 | 50 | 301 | 2.0 | 4.0 | 0.00 | 0.00 | 0.00 | 35 | 1023.8 |
| 20260508184512 | 52 | 319 | 0.0 | 4.0 | 0.00 | 0.00 | 0.00 | 34 | 1023.7 |
| 20260508183010 | 53 | 327 | 0.0 | 5.0 | 0.00 | 0.00 | 0.00 | 33 | 1023.6 |
| 20260508181507 | 54 | 303 | 2.0 | 7.0 | 0.00 | 0.00 | 0.00 | 31 | 1023.4 |
| 20260508180009 | 55 | 8 | 1.0 | 8.0 | 0.00 | 0.00 | 0.00 | 29 | 1023.2 |
| 20260508174509 | 56 | 301 | 3.0 | 6.0 | 0.00 | 0.00 | 0.00 | 28 | 1023.0 |
| 20260508173004 | 57 | 316 | 2.0 | 8.0 | 0.00 | 0.00 | 0.00 | 28 | 1023.0 |
| 20260508171504 | 57 | 285 | 4.0 | 9.0 | 0.00 | 0.00 | 0.00 | 26 | 1022.8 |
| 20260508170003 | 58 | 309 | 2.0 | 11.0 | 0.00 | 0.00 | 0.00 | 26 | 1022.8 |
| 20260508164503 | 59 | 328 | 2.0 | 9.0 | 0.00 | 0.00 | 0.00 | 27 | 1022.7 |
| 20260508163003 | 60 | 296 | 5.0 | 10.0 | 0.00 | 0.00 | 0.00 | 24 | 1022.6 |
| 20260508161501 | 61 | 326 | 4.0 | 10.0 | 0.00 | 0.00 | 0.00 | 25 | 1022.7 |
| 20260508160001 | 61 | 322 | 3.0 | 11.0 | 0.00 | 0.00 | 0.00 | 24 | 1022.6 |
| 20260508154600 | 62 | 355 | 2.0 | 13.0 | 0.00 | 0.00 | 0.00 | 24 | 1022.6 |
| 20260508153103 | 62 | 330 | 2.0 | 11.0 | 0.00 | 0.00 | 0.00 | 25 | 1022.6 |
| 20260508151602 | 63 | 329 | 1.0 | 8.0 | 0.00 | 0.00 | 0.00 | 25 | 1022.6 |
| 20260508150058 | 63 | 300 | 6.0 | 12.0 | 0.00 | 0.00 | 0.00 | 24 | 1022.6 |
| 20260508144605 | 63 | 307 | 3.0 | 10.0 | 0.00 | 0.00 | 0.00 | 23 | 1022.6 |
| 20260508143059 | 62 | 309 | 5.0 | 10.0 | 0.00 | 0.00 | 0.00 | 24 | 1022.7 |
| 20260508141600 | 63 | 310 | 2.0 | 10.0 | 0.00 | 0.00 | 0.00 | 24 | 1022.7 |
| 20260508140059 | 63 | 291 | 2.0 | 8.0 | 0.00 | 0.00 | 0.00 | 25 | 1022.7 |
| 20260508134606 | 63 | 311 | 1.0 | 7.0 | 0.00 | 0.00 | 0.00 | 28 | 1022.7 |
| 20260508133054 | 63 | 309 | 1.0 | 11.0 | 0.00 | 0.00 | 0.00 | 28 | 1022.8 |
| 20260508131553 | 63 | 355 | 5.0 | 10.0 | 0.00 | 0.00 | 0.00 | 27 | 1022.8 |
| 20260508130052 | 63 | 341 | 4.0 | 8.0 | 0.00 | 0.00 | 0.00 | 27 | 1022.9 |
| 20260508124551 | 63 | 309 | 4.0 | 12.0 | 0.00 | 0.00 | 0.00 | 28 | 1023.0 |
| 20260508123104 | 62 | 291 | 6.0 | 9.0 | 0.00 | 0.00 | 0.00 | 28 | 1023.1 |
| 20260508121551 | 62 | 311 | 4.0 | 9.0 | 0.00 | 0.00 | 0.00 | 29 | 1023.0 |
| 20260508120049 | 63 | 307 | 2.0 | 10.0 | 0.00 | 0.00 | 0.00 | 28 | 1023.1 |
| 20260508114552 | 63 | 307 | 4.0 | 8.0 | 0.00 | 0.00 | 0.00 | 29 | 1023.1 |
| 20260508113058 | 62 | 309 | 3.0 | 12.0 | 0.00 | 0.00 | 0.00 | 28 | 1023.1 |
| 20260508111547 | 63 | 320 | 3.0 | 7.0 | 0.00 | 0.00 | 0.00 | 28 | 1023.0 |
| 20260508110043 | 62 | 360 | 3.0 | 7.0 | 0.00 | 0.00 | 0.00 | 30 | 1023.0 |
| 20260508104543 | 62 | 323 | 2.0 | 8.0 | 0.00 | 0.00 | 0.00 | 28 | 1023.1 |
| 20260508103042 | 61 | 309 | 4.0 | 12.0 | 0.00 | 0.00 | 0.00 | 28 | 1023.2 |
| 20260508101539 | 60 | 324 | 4.0 | 16.0 | 0.00 | 0.00 | 0.00 | 28 | 1023.1 |
| 20260508100037 | 61 | 321 | 5.0 | 11.0 | 0.00 | 0.00 | 0.00 | 27 | 1023.2 |
| 20260508094549 | 61 | 331 | 3.0 | 10.0 | 0.00 | 0.00 | 0.00 | 26 | 1023.1 |
| 20260508093036 | 61 | 317 | 5.0 | 12.0 | 0.00 | 0.00 | 0.00 | 24 | 1023.2 |
| 20260508091540 | 60 | 300 | 7.0 | 14.0 | 0.00 | 0.00 | 0.00 | 23 | 1023.1 |
| 20260508090031 | 59 | 334 | 3.0 | 10.0 | 0.00 | 0.00 | 0.00 | 23 | 1023.2 |
| 20260508084529 | 59 | 312 | 4.0 | 8.0 | 0.00 | 0.00 | 0.00 | 24 | 1023.2 |
| 20260508083025 | 58 | 324 | 5.0 | 11.0 | 0.00 | 0.00 | 0.00 | 24 | 1023.2 |
| 20260508081552 | 57 | 327 | 6.0 | 9.0 | 0.00 | 0.00 | 0.00 | 24 | 1023.3 |
| 20260508080020 | 56 | 326 | 2.0 | 11.0 | 0.00 | 0.00 | 0.00 | 27 | 1023.3 |
| 20260508074518 | 55 | 305 | 2.0 | 9.0 | 0.00 | 0.00 | 0.00 | 26 | 1023.2 |
| 20260508073017 | 56 | 327 | 5.0 | 11.0 | 0.00 | 0.00 | 0.00 | 31 | 1023.2 |
| 20260508071526 | 55 | 293 | 2.0 | 9.0 | 0.00 | 0.00 | 0.00 | 39 | 1023.1 |
| 20260508070008 | 54 | 321 | 3.0 | 8.0 | 0.00 | 0.00 | 0.00 | 41 | 1022.9 |
| 20260508064509 | 52 | 302 | 2.0 | 7.0 | 0.00 | 0.00 | 0.00 | 44 | 1022.8 |
| 20260508063002 | 52 | 321 | 1.0 | 4.0 | 0.00 | 0.00 | 0.00 | 46 | 1022.6 |
| 20260508061558 | 50 | 299 | 0.0 | 6.0 | 0.00 | 0.00 | 0.00 | 48 | 1022.5 |
| 20260508060057 | 49 | 8 | 1.0 | 4.0 | 0.00 | 0.00 | 0.00 | 52 | 1022.4 |
| 20260508054552 | 48 | 307 | 1.0 | 3.0 | 0.00 | 0.00 | 0.00 | 52 | 1022.2 |
| 20260508053048 | 46 | 340 | 1.0 | 3.0 | 0.00 | 0.00 | 0.00 | 56 | 1022.1 |
| 20260508051545 | 46 | 311 | 1.0 | 3.0 | 0.00 | 0.00 | 0.00 | 57 | 1021.9 |
| 20260508050041 | 44 | 70 | 0.0 | 1.0 | 0.00 | 0.00 | 0.00 | 64 | 1021.8 |
| 20260508044538 | 40 | 71 | 0.0 | 0.0 | 0.00 | 0.00 | 0.00 | 76 | 1021.5 |
| 20260508043034 | 39 | 71 | 0.0 | 0.0 | 0.00 | 0.00 | 0.00 | 78 | 1021.4 |
| 20260508041531 | 37 | 62 | 0.0 | 0.0 | 0.00 | 0.00 | 0.00 | 84 | 1021.3 |
| 20260508040026 | 34 | 34 | 0.0 | 0.0 | 0.00 | 0.00 | 0.00 | 89 | 1021.2 |
| 20260508034526 | 32 | 34 | 0.0 | 0.0 | 0.00 | 0.00 | 0.00 | 91 | 1021.2 |
| 20260508033024 | 30 | 34 | 0.0 | 0.0 | 0.00 | 0.00 | 0.00 | 93 | 1021.1 |
| 20260508031523 | 29 | 34 | 0.0 | 0.0 | 0.00 | 0.00 | 0.00 | 93 | 1021.0 |
| 20260508030021 | 29 | 33 | 0.0 | 0.0 | 0.00 | 0.00 | 0.00 | 93 | 1020.9 |
| 20260508024532 | 29 | 33 | 0.0 | 1.0 | 0.00 | 0.00 | 0.00 | 92 | 1020.8 |
| 20260508023024 | 29 | 33 | 0.0 | 0.0 | 0.00 | 0.00 | 0.00 | 92 | 1020.6 |
| 20260508021515 | 29 | 33 | 0.0 | 0.0 | 0.00 | 0.00 | 0.00 | 92 | 1020.5 |
| 20260508020013 | 29 | 33 | 0.0 | 0.0 | 0.00 | 0.00 | 0.00 | 91 | 1020.4 |
| 20260508014511 | 30 | 33 | 0.0 | 0.0 | 0.00 | 0.00 | 0.00 | 89 | 1020.4 |
| 20260508013009 | 30 | 33 | 0.0 | 0.0 | 0.00 | 0.00 | 0.00 | 88 | 1020.3 |
| 20260508011506 | 30 | 33 | 0.0 | 0.0 | 0.00 | 0.00 | 0.00 | 88 | 1020.0 |
| 20260508010004 | 30 | 33 | 0.0 | 0.0 | 0.00 | 0.00 | 0.00 | 86 | 1019.8 |
| 20260508004502 | 30 | 33 | 0.0 | 0.0 | 0.00 | 0.00 | 0.00 | 85 | 1019.6 |
| 20260508003105 | 30 | 33 | 0.0 | 0.0 | 0.00 | 0.00 | 0.00 | 85 | 1019.5 |
| 20260508001557 | 31 | 33 | 0.0 | 0.0 | 0.00 | 0.00 | 0.00 | 85 | 1019.4 |
| 20260508000054 | 31 | 33 | 0.0 | 0.0 | 0.00 | 0.00 | 0.00 | 83 | 1019.2 |
| 20260507234551 | 32 | 33 | 0.0 | 0.0 | 0.00 | 0.00 | 0.00 | 83 | 1019.1 |
| 20260507233049 | 32 | 33 | 0.0 | 0.0 | 0.00 | 0.00 | 0.00 | 81 | 1018.9 |
| 20260507231548 | 33 | 33 | 0.0 | 0.0 | 0.00 | 0.00 | 0.00 | 80 | 1018.8 |
| 20260507230048 | 33 | 33 | 0.0 | 0.0 | 0.00 | 0.00 | 0.00 | 79 | 1018.7 |